sensor_id;sensor_type;location;lat;lon;timestamp;P1;durP1;ratioP1;P2;durP2;ratioP2
14282;SDS011;7225;59.282;18.344;2022-09-29T00:01:12;2.60;;;1.70;;
14282;SDS011;7225;59.282;18.344;2022-09-29T00:03:40;1.87;;;1.47;;
14282;SDS011;7225;59.282;18.344;2022-09-29T00:06:13;2.10;;;1.70;;
14282;SDS011;7225;59.282;18.344;2022-09-29T00:08:43;3.17;;;1.63;;
14282;SDS011;7225;59.282;18.344;2022-09-29T00:11:14;5.37;;;1.93;;
14282;SDS011;7225;59.282;18.344;2022-09-29T00:13:43;3.37;;;1.97;;
14282;SDS011;7225;59.282;18.344;2022-09-29T00:16:12;4.10;;;2.43;;
14282;SDS011;7225;59.282;18.344;2022-09-29T00:18:40;4.47;;;2.10;;
14282;SDS011;7225;59.282;18.344;2022-09-29T00:21:11;4.57;;;2.20;;
14282;SDS011;7225;59.282;18.344;2022-09-29T00:23:43;2.27;;;1.87;;
14282;SDS011;7225;59.282;18.344;2022-09-29T00:26:13;3.20;;;2.00;;
14282;SDS011;7225;59.282;18.344;2022-09-29T00:28:50;3.10;;;2.23;;
14282;SDS011;7225;59.282;18.344;2022-09-29T00:31:30;2.40;;;1.83;;
14282;SDS011;7225;59.282;18.344;2022-09-29T00:33:59;4.00;;;1.83;;
14282;SDS011;7225;59.282;18.344;2022-09-29T00:36:27;6.87;;;3.40;;
14282;SDS011;7225;59.282;18.344;2022-09-29T00:38:57;3.47;;;2.37;;
14282;SDS011;7225;59.282;18.344;2022-09-29T00:41:31;4.53;;;3.00;;
14282;SDS011;7225;59.282;18.344;2022-09-29T00:44:03;3.00;;;2.00;;
14282;SDS011;7225;59.282;18.344;2022-09-29T00:46:38;1.80;;;1.47;;
14282;SDS011;7225;59.282;18.344;2022-09-29T00:49:42;1.57;;;1.47;;
14282;SDS011;7225;59.282;18.344;2022-09-29T00:52:21;3.27;;;1.30;;
14282;SDS011;7225;59.282;18.344;2022-09-29T00:54:57;2.20;;;1.33;;
14282;SDS011;7225;59.282;18.344;2022-09-29T00:57:33;3.20;;;1.30;;
14282;SDS011;7225;59.282;18.344;2022-09-29T01:00:07;4.00;;;1.50;;
14282;SDS011;7225;59.282;18.344;2022-09-29T01:03:00;1.83;;;1.30;;
14282;SDS011;7225;59.282;18.344;2022-09-29T01:05:42;2.47;;;1.50;;
14282;SDS011;7225;59.282;18.344;2022-09-29T01:08:15;3.10;;;1.70;;
14282;SDS011;7225;59.282;18.344;2022-09-29T01:10:48;1.73;;;1.63;;
14282;SDS011;7225;59.282;18.344;2022-09-29T01:13:17;1.23;;;1.13;;
14282;SDS011;7225;59.282;18.344;2022-09-29T01:15:46;2.70;;;1.27;;
14282;SDS011;7225;59.282;18.344;2022-09-29T01:18:14;4.93;;;1.93;;
14282;SDS011;7225;59.282;18.344;2022-09-29T01:21:05;1.37;;;1.00;;
14282;SDS011;7225;59.282;18.344;2022-09-29T01:26:46;2.10;;;1.40;;
14282;SDS011;7225;59.282;18.344;2022-09-29T01:32:18;4.03;;;1.30;;
14282;SDS011;7225;59.282;18.344;2022-09-29T01:37:48;2.23;;;1.00;;
14282;SDS011;7225;59.282;18.344;2022-09-29T01:40:40;2.93;;;1.40;;
14282;SDS011;7225;59.282;18.344;2022-09-29T01:43:19;1.77;;;1.00;;
14282;SDS011;7225;59.282;18.344;2022-09-29T01:45:58;3.47;;;1.13;;
14282;SDS011;7225;59.282;18.344;2022-09-29T01:48:37;2.10;;;1.00;;
14282;SDS011;7225;59.282;18.344;2022-09-29T01:51:08;2.97;;;1.30;;
14282;SDS011;7225;59.282;18.344;2022-09-29T01:53:41;1.47;;;1.30;;
14282;SDS011;7225;59.282;18.344;2022-09-29T01:56:27;1.00;;;0.90;;
14282;SDS011;7225;59.282;18.344;2022-09-29T01:59:09;4.00;;;1.50;;
14282;SDS011;7225;59.282;18.344;2022-09-29T02:01:44;1.17;;;1.07;;
14282;SDS011;7225;59.282;18.344;2022-09-29T02:04:26;2.40;;;1.00;;
14282;SDS011;7225;59.282;18.344;2022-09-29T02:07:00;1.73;;;0.90;;
14282;SDS011;7225;59.282;18.344;2022-09-29T02:09:41;2.07;;;1.30;;
14282;SDS011;7225;59.282;18.344;2022-09-29T02:12:13;1.40;;;1.10;;
14282;SDS011;7225;59.282;18.344;2022-09-29T02:14:49;2.00;;;1.10;;
14282;SDS011;7225;59.282;18.344;2022-09-29T02:17:21;3.63;;;1.17;;
14282;SDS011;7225;59.282;18.344;2022-09-29T02:19:55;2.17;;;1.30;;
14282;SDS011;7225;59.282;18.344;2022-09-29T02:22:23;2.30;;;1.30;;
14282;SDS011;7225;59.282;18.344;2022-09-29T02:24:51;3.00;;;1.30;;
14282;SDS011;7225;59.282;18.344;2022-09-29T02:27:22;1.47;;;1.20;;
14282;SDS011;7225;59.282;18.344;2022-09-29T02:29:51;1.23;;;1.10;;
14282;SDS011;7225;59.282;18.344;2022-09-29T02:32:19;1.20;;;1.10;;
14282;SDS011;7225;59.282;18.344;2022-09-29T02:34:46;1.60;;;1.20;;
14282;SDS011;7225;59.282;18.344;2022-09-29T02:37:52;4.60;;;1.50;;
14282;SDS011;7225;59.282;18.344;2022-09-29T02:40:44;1.70;;;1.00;;
14282;SDS011;7225;59.282;18.344;2022-09-29T02:43:38;1.67;;;1.30;;
14282;SDS011;7225;59.282;18.344;2022-09-29T02:51:44;1.60;;;1.50;;
14282;SDS011;7225;59.282;18.344;2022-09-29T02:54:48;1.97;;;1.60;;
14282;SDS011;7225;59.282;18.344;2022-09-29T02:58:06;2.73;;;1.70;;
14282;SDS011;7225;59.282;18.344;2022-09-29T03:00:41;2.00;;;1.30;;
14282;SDS011;7225;59.282;18.344;2022-09-29T03:03:12;1.73;;;1.53;;
14282;SDS011;7225;59.282;18.344;2022-09-29T03:05:40;1.83;;;1.20;;
14282;SDS011;7225;59.282;18.344;2022-09-29T03:08:08;3.27;;;1.47;;
14282;SDS011;7225;59.282;18.344;2022-09-29T03:10:37;1.27;;;1.17;;
14282;SDS011;7225;59.282;18.344;2022-09-29T03:13:04;1.60;;;1.50;;
14282;SDS011;7225;59.282;18.344;2022-09-29T03:15:33;4.67;;;2.97;;
14282;SDS011;7225;59.282;18.344;2022-09-29T03:18:01;4.80;;;3.57;;
14282;SDS011;7225;59.282;18.344;2022-09-29T03:20:35;6.93;;;4.47;;
14282;SDS011;7225;59.282;18.344;2022-09-29T03:23:03;6.93;;;3.83;;
14282;SDS011;7225;59.282;18.344;2022-09-29T03:25:30;4.57;;;2.53;;
14282;SDS011;7225;59.282;18.344;2022-09-29T03:27:59;2.40;;;2.10;;
14282;SDS011;7225;59.282;18.344;2022-09-29T03:30:28;4.50;;;2.50;;
14282;SDS011;7225;59.282;18.344;2022-09-29T03:32:56;4.07;;;3.10;;
14282;SDS011;7225;59.282;18.344;2022-09-29T03:35:23;6.47;;;3.67;;
14282;SDS011;7225;59.282;18.344;2022-09-29T03:37:56;3.93;;;2.30;;
14282;SDS011;7225;59.282;18.344;2022-09-29T03:40:26;3.23;;;2.10;;
14282;SDS011;7225;59.282;18.344;2022-09-29T03:42:55;3.90;;;2.10;;
14282;SDS011;7225;59.282;18.344;2022-09-29T03:45:23;5.30;;;3.40;;
14282;SDS011;7225;59.282;18.344;2022-09-29T03:47:52;5.20;;;3.00;;
14282;SDS011;7225;59.282;18.344;2022-09-29T03:50:18;3.20;;;2.90;;
14282;SDS011;7225;59.282;18.344;2022-09-29T03:52:46;4.80;;;3.10;;
14282;SDS011;7225;59.282;18.344;2022-09-29T03:55:14;3.40;;;1.80;;
14282;SDS011;7225;59.282;18.344;2022-09-29T03:57:43;2.73;;;1.17;;
14282;SDS011;7225;59.282;18.344;2022-09-29T04:00:12;3.00;;;1.20;;
14282;SDS011;7225;59.282;18.344;2022-09-29T04:02:39;1.83;;;1.33;;
14282;SDS011;7225;59.282;18.344;2022-09-29T04:05:06;1.40;;;0.50;;
14282;SDS011;7225;59.282;18.344;2022-09-29T04:07:36;1.23;;;0.80;;
14282;SDS011;7225;59.282;18.344;2022-09-29T04:10:04;2.27;;;0.80;;
14282;SDS011;7225;59.282;18.344;2022-09-29T04:12:32;0.90;;;0.80;;
14282;SDS011;7225;59.282;18.344;2022-09-29T04:14:59;0.80;;;0.80;;
14282;SDS011;7225;59.282;18.344;2022-09-29T04:17:27;1.60;;;0.73;;
14282;SDS011;7225;59.282;18.344;2022-09-29T04:19:54;3.20;;;0.67;;
14282;SDS011;7225;59.282;18.344;2022-09-29T04:22:22;1.40;;;1.30;;
14282;SDS011;7225;59.282;18.344;2022-09-29T04:24:50;1.80;;;1.03;;
14282;SDS011;7225;59.282;18.344;2022-09-29T04:27:18;3.33;;;0.87;;
14282;SDS011;7225;59.282;18.344;2022-09-29T04:29:46;1.67;;;1.30;;
14282;SDS011;7225;59.282;18.344;2022-09-29T04:32:14;2.60;;;0.90;;
14282;SDS011;7225;59.282;18.344;2022-09-29T04:34:41;1.33;;;0.80;;
14282;SDS011;7225;59.282;18.344;2022-09-29T04:37:10;3.13;;;0.80;;
14282;SDS011;7225;59.282;18.344;2022-09-29T04:39:37;2.20;;;0.97;;
14282;SDS011;7225;59.282;18.344;2022-09-29T04:42:05;3.57;;;1.10;;
14282;SDS011;7225;59.282;18.344;2022-09-29T04:44:32;1.80;;;0.90;;
14282;SDS011;7225;59.282;18.344;2022-09-29T04:47:01;2.97;;;2.07;;
14282;SDS011;7225;59.282;18.344;2022-09-29T04:49:30;2.47;;;1.10;;
14282;SDS011;7225;59.282;18.344;2022-09-29T04:51:58;1.97;;;0.93;;
14282;SDS011;7225;59.282;18.344;2022-09-29T04:54:29;2.80;;;2.17;;
14282;SDS011;7225;59.282;18.344;2022-09-29T04:57:05;5.20;;;2.80;;
14282;SDS011;7225;59.282;18.344;2022-09-29T04:59:34;2.93;;;1.10;;
14282;SDS011;7225;59.282;18.344;2022-09-29T05:02:02;3.33;;;0.90;;
14282;SDS011;7225;59.282;18.344;2022-09-29T05:04:29;3.70;;;1.20;;
14282;SDS011;7225;59.282;18.344;2022-09-29T05:06:56;1.27;;;1.00;;
14282;SDS011;7225;59.282;18.344;2022-09-29T05:09:24;1.43;;;1.23;;
14282;SDS011;7225;59.282;18.344;2022-09-29T05:11:57;1.20;;;1.10;;
14282;SDS011;7225;59.282;18.344;2022-09-29T05:14:24;2.93;;;1.13;;
14282;SDS011;7225;59.282;18.344;2022-09-29T05:16:55;1.87;;;1.30;;
14282;SDS011;7225;59.282;18.344;2022-09-29T05:19:23;2.97;;;1.27;;
14282;SDS011;7225;59.282;18.344;2022-09-29T05:21:51;2.37;;;1.20;;
14282;SDS011;7225;59.282;18.344;2022-09-29T05:24:19;2.20;;;1.60;;
14282;SDS011;7225;59.282;18.344;2022-09-29T05:26:47;3.23;;;1.27;;
14282;SDS011;7225;59.282;18.344;2022-09-29T05:29:15;2.87;;;1.47;;
14282;SDS011;7225;59.282;18.344;2022-09-29T05:31:42;2.03;;;1.13;;
14282;SDS011;7225;59.282;18.344;2022-09-29T05:34:11;1.80;;;1.20;;
14282;SDS011;7225;59.282;18.344;2022-09-29T05:36:38;2.77;;;1.23;;
14282;SDS011;7225;59.282;18.344;2022-09-29T05:39:05;1.40;;;0.90;;
14282;SDS011;7225;59.282;18.344;2022-09-29T05:41:33;1.50;;;1.00;;
14282;SDS011;7225;59.282;18.344;2022-09-29T05:44:02;4.63;;;1.77;;
14282;SDS011;7225;59.282;18.344;2022-09-29T05:46:32;2.03;;;1.37;;
14282;SDS011;7225;59.282;18.344;2022-09-29T05:49:01;1.63;;;1.20;;
14282;SDS011;7225;59.282;18.344;2022-09-29T05:51:27;2.37;;;1.40;;
14282;SDS011;7225;59.282;18.344;2022-09-29T05:53:55;2.03;;;1.73;;
14282;SDS011;7225;59.282;18.344;2022-09-29T05:56:25;2.47;;;1.17;;
14282;SDS011;7225;59.282;18.344;2022-09-29T05:58:53;1.57;;;1.10;;
14282;SDS011;7225;59.282;18.344;2022-09-29T06:01:21;1.47;;;1.17;;
14282;SDS011;7225;59.282;18.344;2022-09-29T06:03:53;3.33;;;1.13;;
14282;SDS011;7225;59.282;18.344;2022-09-29T06:06:22;4.63;;;1.07;;
14282;SDS011;7225;59.282;18.344;2022-09-29T06:08:52;2.67;;;1.10;;
14282;SDS011;7225;59.282;18.344;2022-09-29T06:11:25;2.30;;;1.10;;
14282;SDS011;7225;59.282;18.344;2022-09-29T06:13:55;2.30;;;1.10;;
14282;SDS011;7225;59.282;18.344;2022-09-29T06:16:23;1.20;;;0.80;;
14282;SDS011;7225;59.282;18.344;2022-09-29T06:18:52;0.97;;;0.80;;
14282;SDS011;7225;59.282;18.344;2022-09-29T06:21:23;3.17;;;0.90;;
14282;SDS011;7225;59.282;18.344;2022-09-29T06:23:53;3.00;;;0.77;;
14282;SDS011;7225;59.282;18.344;2022-09-29T06:26:21;3.93;;;1.20;;
14282;SDS011;7225;59.282;18.344;2022-09-29T06:28:52;3.77;;;2.10;;
14282;SDS011;7225;59.282;18.344;2022-09-29T06:31:22;2.27;;;1.30;;
14282;SDS011;7225;59.282;18.344;2022-09-29T06:33:55;10.47;;;5.70;;
14282;SDS011;7225;59.282;18.344;2022-09-29T06:36:29;2.27;;;1.27;;
14282;SDS011;7225;59.282;18.344;2022-09-29T06:39:21;3.50;;;1.13;;
14282;SDS011;7225;59.282;18.344;2022-09-29T06:41:48;2.50;;;1.17;;
14282;SDS011;7225;59.282;18.344;2022-09-29T06:44:21;4.67;;;1.57;;
14282;SDS011;7225;59.282;18.344;2022-09-29T06:46:51;2.90;;;1.10;;
14282;SDS011;7225;59.282;18.344;2022-09-29T06:49:22;5.37;;;1.40;;
14282;SDS011;7225;59.282;18.344;2022-09-29T06:51:50;2.67;;;1.07;;
14282;SDS011;7225;59.282;18.344;2022-09-29T06:54:19;2.63;;;1.30;;
14282;SDS011;7225;59.282;18.344;2022-09-29T06:56:48;1.67;;;1.10;;
14282;SDS011;7225;59.282;18.344;2022-09-29T06:59:17;1.80;;;1.47;;
14282;SDS011;7225;59.282;18.344;2022-09-29T07:01:45;2.80;;;1.57;;
14282;SDS011;7225;59.282;18.344;2022-09-29T07:04:19;1.77;;;0.83;;
14282;SDS011;7225;59.282;18.344;2022-09-29T07:06:49;2.70;;;1.00;;
14282;SDS011;7225;59.282;18.344;2022-09-29T07:09:17;4.70;;;1.53;;
14282;SDS011;7225;59.282;18.344;2022-09-29T07:11:49;3.63;;;1.20;;
14282;SDS011;7225;59.282;18.344;2022-09-29T07:14:19;1.97;;;1.30;;
14282;SDS011;7225;59.282;18.344;2022-09-29T07:16:48;2.83;;;1.90;;
14282;SDS011;7225;59.282;18.344;2022-09-29T07:19:18;3.73;;;1.13;;
14282;SDS011;7225;59.282;18.344;2022-09-29T07:21:47;1.97;;;1.00;;
14282;SDS011;7225;59.282;18.344;2022-09-29T07:24:16;2.43;;;1.20;;
14282;SDS011;7225;59.282;18.344;2022-09-29T07:26:43;1.97;;;0.80;;
14282;SDS011;7225;59.282;18.344;2022-09-29T07:29:11;2.70;;;1.40;;
14282;SDS011;7225;59.282;18.344;2022-09-29T07:31:42;3.07;;;1.13;;
14282;SDS011;7225;59.282;18.344;2022-09-29T07:34:18;2.80;;;1.10;;
14282;SDS011;7225;59.282;18.344;2022-09-29T07:36:46;2.13;;;1.13;;
14282;SDS011;7225;59.282;18.344;2022-09-29T07:39:13;3.10;;;1.50;;
14282;SDS011;7225;59.282;18.344;2022-09-29T07:41:43;3.80;;;2.13;;
14282;SDS011;7225;59.282;18.344;2022-09-29T07:44:11;2.73;;;1.27;;
14282;SDS011;7225;59.282;18.344;2022-09-29T07:46:39;1.87;;;1.10;;
14282;SDS011;7225;59.282;18.344;2022-09-29T07:49:07;1.50;;;1.30;;
14282;SDS011;7225;59.282;18.344;2022-09-29T07:51:34;2.87;;;2.07;;
14282;SDS011;7225;59.282;18.344;2022-09-29T07:54:03;4.03;;;2.83;;
14282;SDS011;7225;59.282;18.344;2022-09-29T07:56:32;3.63;;;2.80;;
14282;SDS011;7225;59.282;18.344;2022-09-29T07:59:00;4.73;;;2.73;;
14282;SDS011;7225;59.282;18.344;2022-09-29T08:01:29;3.53;;;2.50;;
14282;SDS011;7225;59.282;18.344;2022-09-29T08:03:58;3.43;;;2.20;;
14282;SDS011;7225;59.282;18.344;2022-09-29T08:06:26;1.80;;;1.53;;
14282;SDS011;7225;59.282;18.344;2022-09-29T08:08:54;2.17;;;1.33;;
14282;SDS011;7225;59.282;18.344;2022-09-29T08:11:31;3.90;;;1.67;;
14282;SDS011;7225;59.282;18.344;2022-09-29T08:14:03;1.73;;;1.43;;
14282;SDS011;7225;59.282;18.344;2022-09-29T08:16:33;1.80;;;1.13;;
14282;SDS011;7225;59.282;18.344;2022-09-29T08:19:01;3.17;;;1.37;;
14282;SDS011;7225;59.282;18.344;2022-09-29T08:21:30;3.60;;;1.13;;
14282;SDS011;7225;59.282;18.344;2022-09-29T08:24:03;1.77;;;1.30;;
14282;SDS011;7225;59.282;18.344;2022-09-29T08:26:34;3.47;;;3.17;;
14282;SDS011;7225;59.282;18.344;2022-09-29T08:29:11;4.13;;;2.60;;
14282;SDS011;7225;59.282;18.344;2022-09-29T08:31:44;3.70;;;1.60;;
14282;SDS011;7225;59.282;18.344;2022-09-29T08:34:13;1.67;;;1.40;;
14282;SDS011;7225;59.282;18.344;2022-09-29T08:36:43;3.17;;;2.20;;
14282;SDS011;7225;59.282;18.344;2022-09-29T08:39:11;1.87;;;1.67;;
14282;SDS011;7225;59.282;18.344;2022-09-29T08:44:48;2.93;;;1.60;;
14282;SDS011;7225;59.282;18.344;2022-09-29T08:47:35;2.70;;;1.87;;
14282;SDS011;7225;59.282;18.344;2022-09-29T08:52:57;3.50;;;1.90;;
14282;SDS011;7225;59.282;18.344;2022-09-29T08:58:35;3.93;;;1.90;;
14282;SDS011;7225;59.282;18.344;2022-09-29T09:01:12;1.70;;;1.60;;
14282;SDS011;7225;59.282;18.344;2022-09-29T09:04:13;1.97;;;1.87;;
14282;SDS011;7225;59.282;18.344;2022-09-29T09:09:33;3.43;;;1.73;;
14282;SDS011;7225;59.282;18.344;2022-09-29T09:12:21;2.10;;;1.70;;
14282;SDS011;7225;59.282;18.344;2022-09-29T09:26:37;2.50;;;2.00;;
14282;SDS011;7225;59.282;18.344;2022-09-29T09:29:20;3.30;;;2.07;;
14282;SDS011;7225;59.282;18.344;2022-09-29T09:31:53;3.83;;;2.20;;
14282;SDS011;7225;59.282;18.344;2022-09-29T09:37:38;2.97;;;1.77;;
14282;SDS011;7225;59.282;18.344;2022-09-29T09:42:40;2.10;;;1.90;;
14282;SDS011;7225;59.282;18.344;2022-09-29T09:48:06;1.90;;;1.50;;
14282;SDS011;7225;59.282;18.344;2022-09-29T09:50:45;4.70;;;1.57;;
14282;SDS011;7225;59.282;18.344;2022-09-29T09:53:25;4.03;;;2.87;;
14282;SDS011;7225;59.282;18.344;2022-09-29T09:56:07;2.13;;;1.47;;
14282;SDS011;7225;59.282;18.344;2022-09-29T10:01:16;2.47;;;1.90;;
14282;SDS011;7225;59.282;18.344;2022-09-29T10:03:44;1.73;;;1.63;;
14282;SDS011;7225;59.282;18.344;2022-09-29T10:06:11;2.43;;;1.70;;
14282;SDS011;7225;59.282;18.344;2022-09-29T10:08:38;2.23;;;1.50;;
14282;SDS011;7225;59.282;18.344;2022-09-29T10:11:23;2.47;;;2.13;;
14282;SDS011;7225;59.282;18.344;2022-09-29T10:16:53;1.97;;;1.20;;
14282;SDS011;7225;59.282;18.344;2022-09-29T10:22:29;1.30;;;1.13;;
14282;SDS011;7225;59.282;18.344;2022-09-29T10:27:44;2.70;;;1.23;;
14282;SDS011;7225;59.282;18.344;2022-09-29T10:30:19;1.33;;;1.13;;
14282;SDS011;7225;59.282;18.344;2022-09-29T10:32:58;2.10;;;1.30;;
14282;SDS011;7225;59.282;18.344;2022-09-29T10:35:37;3.10;;;1.27;;
14282;SDS011;7225;59.282;18.344;2022-09-29T10:38:23;1.93;;;1.27;;
14282;SDS011;7225;59.282;18.344;2022-09-29T10:40:53;2.70;;;1.20;;
14282;SDS011;7225;59.282;18.344;2022-09-29T10:46:03;2.03;;;1.17;;
14282;SDS011;7225;59.282;18.344;2022-09-29T10:48:32;2.10;;;1.10;;
14282;SDS011;7225;59.282;18.344;2022-09-29T10:51:01;1.87;;;1.10;;
14282;SDS011;7225;59.282;18.344;2022-09-29T10:53:34;1.70;;;1.60;;
14282;SDS011;7225;59.282;18.344;2022-09-29T10:56:15;4.30;;;1.30;;
14282;SDS011;7225;59.282;18.344;2022-09-29T10:58:52;2.33;;;1.37;;
14282;SDS011;7225;59.282;18.344;2022-09-29T11:01:32;1.40;;;0.90;;
14282;SDS011;7225;59.282;18.344;2022-09-29T11:04:18;1.20;;;1.10;;
14282;SDS011;7225;59.282;18.344;2022-09-29T11:06:50;0.93;;;0.90;;
14282;SDS011;7225;59.282;18.344;2022-09-29T11:19:52;0.70;;;0.70;;
14282;SDS011;7225;59.282;18.344;2022-09-29T11:33:28;1.93;;;1.40;;
14282;SDS011;7225;59.282;18.344;2022-09-29T11:36:16;1.10;;;1.00;;
14282;SDS011;7225;59.282;18.344;2022-09-29T12:18:12;1.47;;;1.00;;
14282;SDS011;7225;59.282;18.344;2022-09-29T12:20:45;1.43;;;0.90;;
14282;SDS011;7225;59.282;18.344;2022-09-29T12:23:16;1.57;;;1.00;;
14282;SDS011;7225;59.282;18.344;2022-09-29T12:25:50;2.63;;;0.70;;
14282;SDS011;7225;59.282;18.344;2022-09-29T12:28:21;1.20;;;0.80;;
14282;SDS011;7225;59.282;18.344;2022-09-29T12:30:56;2.10;;;1.00;;
14282;SDS011;7225;59.282;18.344;2022-09-29T12:33:31;1.17;;;0.80;;
14282;SDS011;7225;59.282;18.344;2022-09-29T12:50:27;0.83;;;0.70;;
14282;SDS011;7225;59.282;18.344;2022-09-29T13:01:18;1.03;;;0.80;;
14282;SDS011;7225;59.282;18.344;2022-09-29T13:24:43;2.10;;;0.60;;
14282;SDS011;7225;59.282;18.344;2022-09-29T13:27:34;0.50;;;0.43;;
14282;SDS011;7225;59.282;18.344;2022-09-29T13:35:39;2.97;;;0.80;;
14282;SDS011;7225;59.282;18.344;2022-09-29T13:38:15;2.03;;;0.83;;
14282;SDS011;7225;59.282;18.344;2022-09-29T13:51:45;1.90;;;0.77;;
14282;SDS011;7225;59.282;18.344;2022-09-29T13:54:30;1.60;;;0.50;;
14282;SDS011;7225;59.282;18.344;2022-09-29T13:59:40;1.50;;;0.57;;
14282;SDS011;7225;59.282;18.344;2022-09-29T14:02:17;0.60;;;0.60;;
14282;SDS011;7225;59.282;18.344;2022-09-29T14:05:05;4.97;;;2.90;;
14282;SDS011;7225;59.282;18.344;2022-09-29T14:13:06;1.43;;;0.70;;
14282;SDS011;7225;59.282;18.344;2022-09-29T14:15:39;1.20;;;0.60;;
14282;SDS011;7225;59.282;18.344;2022-09-29T14:18:20;3.70;;;0.73;;
14282;SDS011;7225;59.282;18.344;2022-09-29T14:21:04;0.60;;;0.60;;
14282;SDS011;7225;59.282;18.344;2022-09-29T14:31:48;1.60;;;1.07;;
14282;SDS011;7225;59.282;18.344;2022-09-29T14:34:20;1.23;;;1.10;;
14282;SDS011;7225;59.282;18.344;2022-09-29T14:36:52;2.20;;;0.80;;
14282;SDS011;7225;59.282;18.344;2022-09-29T14:39:22;1.43;;;0.97;;
14282;SDS011;7225;59.282;18.344;2022-09-29T14:42:02;0.90;;;0.77;;
14282;SDS011;7225;59.282;18.344;2022-09-29T14:44:33;2.43;;;0.90;;
14282;SDS011;7225;59.282;18.344;2022-09-29T14:56:40;2.17;;;0.90;;
14282;SDS011;7225;59.282;18.344;2022-09-29T14:59:22;1.00;;;0.70;;
14282;SDS011;7225;59.282;18.344;2022-09-29T15:02:21;0.90;;;0.80;;
14282;SDS011;7225;59.282;18.344;2022-09-29T15:04:53;1.90;;;1.40;;
14282;SDS011;7225;59.282;18.344;2022-09-29T15:07:22;2.67;;;0.87;;
14282;SDS011;7225;59.282;18.344;2022-09-29T15:09:57;0.70;;;0.70;;
14282;SDS011;7225;59.282;18.344;2022-09-29T15:12:27;4.43;;;1.40;;
14282;SDS011;7225;59.282;18.344;2022-09-29T15:14:58;2.33;;;1.20;;
14282;SDS011;7225;59.282;18.344;2022-09-29T15:22:54;1.43;;;0.90;;
14282;SDS011;7225;59.282;18.344;2022-09-29T15:25:29;2.23;;;0.77;;
14282;SDS011;7225;59.282;18.344;2022-09-29T15:28:09;0.67;;;0.67;;
14282;SDS011;7225;59.282;18.344;2022-09-29T15:30:41;1.13;;;1.00;;
14282;SDS011;7225;59.282;18.344;2022-09-29T15:35:58;1.77;;;0.90;;
14282;SDS011;7225;59.282;18.344;2022-09-29T15:38:31;0.73;;;0.73;;
14282;SDS011;7225;59.282;18.344;2022-09-29T15:46:23;1.50;;;1.10;;
14282;SDS011;7225;59.282;18.344;2022-09-29T15:49:21;0.97;;;0.80;;
14282;SDS011;7225;59.282;18.344;2022-09-29T15:52:09;2.60;;;1.00;;
14282;SDS011;7225;59.282;18.344;2022-09-29T15:54:41;1.33;;;0.80;;
14282;SDS011;7225;59.282;18.344;2022-09-29T15:57:26;1.07;;;0.97;;
14282;SDS011;7225;59.282;18.344;2022-09-29T16:05:17;2.00;;;0.90;;
14282;SDS011;7225;59.282;18.344;2022-09-29T16:08:03;1.43;;;0.97;;
14282;SDS011;7225;59.282;18.344;2022-09-29T16:10:38;1.23;;;1.13;;
14282;SDS011;7225;59.282;18.344;2022-09-29T16:13:18;1.80;;;0.80;;
14282;SDS011;7225;59.282;18.344;2022-09-29T16:15:50;1.63;;;1.30;;
14282;SDS011;7225;59.282;18.344;2022-09-29T16:18:30;2.00;;;1.00;;
14282;SDS011;7225;59.282;18.344;2022-09-29T16:21:07;1.37;;;0.90;;
14282;SDS011;7225;59.282;18.344;2022-09-29T16:23:43;1.33;;;1.23;;
14282;SDS011;7225;59.282;18.344;2022-09-29T16:26:17;1.30;;;1.20;;
14282;SDS011;7225;59.282;18.344;2022-09-29T16:31:48;3.83;;;1.07;;
14282;SDS011;7225;59.282;18.344;2022-09-29T16:39:18;2.70;;;1.40;;
14282;SDS011;7225;59.282;18.344;2022-09-29T16:41:50;1.10;;;1.00;;
14282;SDS011;7225;59.282;18.344;2022-09-29T16:44:24;2.70;;;1.10;;
14282;SDS011;7225;59.282;18.344;2022-09-29T16:46:55;2.03;;;1.40;;
14282;SDS011;7225;59.282;18.344;2022-09-29T16:54:53;1.77;;;1.20;;
14282;SDS011;7225;59.282;18.344;2022-09-29T17:00:46;1.87;;;1.10;;
14282;SDS011;7225;59.282;18.344;2022-09-29T17:03:14;2.67;;;1.50;;
14282;SDS011;7225;59.282;18.344;2022-09-29T17:05:42;2.67;;;1.60;;
14282;SDS011;7225;59.282;18.344;2022-09-29T17:10:49;2.60;;;1.73;;
14282;SDS011;7225;59.282;18.344;2022-09-29T17:13:19;2.20;;;1.83;;
14282;SDS011;7225;59.282;18.344;2022-09-29T17:15:48;3.93;;;1.47;;
14282;SDS011;7225;59.282;18.344;2022-09-29T17:18:19;3.50;;;1.70;;
14282;SDS011;7225;59.282;18.344;2022-09-29T17:20:49;2.17;;;1.50;;
14282;SDS011;7225;59.282;18.344;2022-09-29T17:23:17;2.00;;;1.60;;
14282;SDS011;7225;59.282;18.344;2022-09-29T17:25:45;2.37;;;1.30;;
14282;SDS011;7225;59.282;18.344;2022-09-29T17:28:15;3.57;;;1.47;;
14282;SDS011;7225;59.282;18.344;2022-09-29T17:30:45;2.13;;;1.43;;
14282;SDS011;7225;59.282;18.344;2022-09-29T17:33:15;3.47;;;1.63;;
14282;SDS011;7225;59.282;18.344;2022-09-29T17:35:45;3.40;;;1.70;;
14282;SDS011;7225;59.282;18.344;2022-09-29T17:38:21;2.27;;;1.47;;
14282;SDS011;7225;59.282;18.344;2022-09-29T17:43:30;3.80;;;1.93;;
14282;SDS011;7225;59.282;18.344;2022-09-29T17:45:59;3.90;;;1.80;;
14282;SDS011;7225;59.282;18.344;2022-09-29T17:48:27;1.73;;;1.37;;
14282;SDS011;7225;59.282;18.344;2022-09-29T17:50:57;2.70;;;1.60;;
14282;SDS011;7225;59.282;18.344;2022-09-29T17:53:27;1.80;;;1.40;;
14282;SDS011;7225;59.282;18.344;2022-09-29T17:55:56;1.93;;;1.23;;
14282;SDS011;7225;59.282;18.344;2022-09-29T17:58:23;3.67;;;1.50;;
14282;SDS011;7225;59.282;18.344;2022-09-29T18:00:52;3.67;;;1.40;;
14282;SDS011;7225;59.282;18.344;2022-09-29T18:03:20;2.40;;;1.80;;
14282;SDS011;7225;59.282;18.344;2022-09-29T18:05:50;1.63;;;1.27;;
14282;SDS011;7225;59.282;18.344;2022-09-29T18:08:23;2.10;;;1.30;;
14282;SDS011;7225;59.282;18.344;2022-09-29T18:11:01;2.67;;;1.33;;
14282;SDS011;7225;59.282;18.344;2022-09-29T18:13:29;2.10;;;1.40;;
14282;SDS011;7225;59.282;18.344;2022-09-29T18:15:58;3.80;;;2.30;;
14282;SDS011;7225;59.282;18.344;2022-09-29T18:18:28;2.27;;;2.00;;
14282;SDS011;7225;59.282;18.344;2022-09-29T18:20:57;3.53;;;2.23;;
14282;SDS011;7225;59.282;18.344;2022-09-29T18:23:25;5.00;;;2.83;;
14282;SDS011;7225;59.282;18.344;2022-09-29T18:25:54;3.50;;;2.63;;
14282;SDS011;7225;59.282;18.344;2022-09-29T18:28:22;4.07;;;2.30;;
14282;SDS011;7225;59.282;18.344;2022-09-29T18:30:52;2.83;;;2.10;;
14282;SDS011;7225;59.282;18.344;2022-09-29T18:33:27;4.13;;;2.97;;
14282;SDS011;7225;59.282;18.344;2022-09-29T18:35:55;6.10;;;3.03;;
14282;SDS011;7225;59.282;18.344;2022-09-29T18:38:23;3.60;;;2.33;;
14282;SDS011;7225;59.282;18.344;2022-09-29T18:40:52;6.13;;;2.30;;
14282;SDS011;7225;59.282;18.344;2022-09-29T18:43:22;2.23;;;2.03;;
14282;SDS011;7225;59.282;18.344;2022-09-29T18:45:53;2.73;;;2.20;;
14282;SDS011;7225;59.282;18.344;2022-09-29T18:48:22;3.60;;;3.30;;
14282;SDS011;7225;59.282;18.344;2022-09-29T18:50:50;2.80;;;2.07;;
14282;SDS011;7225;59.282;18.344;2022-09-29T18:53:20;1.90;;;1.70;;
14282;SDS011;7225;59.282;18.344;2022-09-29T18:55:48;4.87;;;2.10;;
14282;SDS011;7225;59.282;18.344;2022-09-29T18:58:25;1.77;;;1.63;;
14282;SDS011;7225;59.282;18.344;2022-09-29T19:00:53;4.23;;;2.00;;
14282;SDS011;7225;59.282;18.344;2022-09-29T19:03:22;4.13;;;1.80;;
14282;SDS011;7225;59.282;18.344;2022-09-29T19:05:54;5.47;;;1.90;;
14282;SDS011;7225;59.282;18.344;2022-09-29T19:08:22;1.53;;;1.43;;
14282;SDS011;7225;59.282;18.344;2022-09-29T19:10:52;2.07;;;1.67;;
14282;SDS011;7225;59.282;18.344;2022-09-29T19:13:21;1.80;;;1.50;;
14282;SDS011;7225;59.282;18.344;2022-09-29T19:15:48;1.67;;;1.40;;
14282;SDS011;7225;59.282;18.344;2022-09-29T19:18:20;3.57;;;1.40;;
14282;SDS011;7225;59.282;18.344;2022-09-29T19:20:52;3.47;;;1.10;;
14282;SDS011;7225;59.282;18.344;2022-09-29T19:23:22;1.57;;;1.47;;
14282;SDS011;7225;59.282;18.344;2022-09-29T19:25:52;1.30;;;1.17;;
14282;SDS011;7225;59.282;18.344;2022-09-29T19:28:21;1.43;;;1.33;;